Madawaska, ME

4:39 PM EST on March 06, 2015 (GMT -0500)
K1FTK | Change Station
CLOSE
Current Station
Personal Weather Station
Location: Saint Agatha, ME
Elevation: 825 ft
Nearby Weather Stations

Elev 825 ft 47.25 °N, 68.35 °W | Updated 9 minutes ago

Clear
Clear
16.4 °F
Feels Like 5 °F
N
9.0
Wind Variable Wind from SW
Gusts 10.0 mph

Today
High -- | Low -- °F
--% Chance of Precip.
Yesterday
High -- | Low -- °F
Precip. -- in
6:04 AM 5:25 PM
Full, 99% visible
Pressure 30.09 in
Visibility 10.0 miles
Clouds Clear
Windchill 5 °F
Dew Point -1 °F
Humidity 45%
Rainfall in
Snow Depth Not available.
UV 1 out of 12
Pollen .30 out of 12
Air Quality Not available.
Flu Activity Not available.
METAR KFVE 062053Z AUTO 23009G19KT 10SM CLR M08/M22 A3009

More Conditions Fewer Conditions

Pressure 30.09 in
Visibility 10.0 miles
Clouds Clear
Windchill 5 °F
Dew Point -1 °F
Humidity 45%
Rainfall in
Snow Depth Not available.
UV 1 out of 12
Pollen .30 out of 12
Air Quality Not available.
Flu Activity Not available.
METAR KFVE 062053Z AUTO 23009G19KT 10SM CLR M08/M22 A3009

More Conditions Fewer Conditions

10-Day Weather Forecast

Almanac

Astronomy

Mar. 06, 2015 Rise Set
Actual Time
Civil Twilight
Nautical Twilight
Astronomical Twilight
Moon
Length of Visible Light
Length of Day
Tomorrow will be .
, % of the Moon is Illuminated

Today's Extremes

State Highs State Lows

Community

WunderPhotos

Upload Photos

1,803,406 photos uploaded!

WunderBlogs® & News

Nearby

Air Quality

  Air Quality AQ Index Pollutant
Not available.

Snow Depth

Station Depth Elevation

Earthquake Activity

City Distance Mag. Time & Date
Minimum magnitude displayed is 2.5.

Coastal Water Temperatures

Place Temperature

Nearby Weather Stations